Time;durP1;ratioP1;P1;durP2;ratioP2;P2;SDS_P1;SDS_P2;PMS_P1;PMS_P2;Temp;Humidity;BMP_temperature;BMP_pressure;BME280_temperature;BME280_humidity;BME280_pressure;Samples;Min_cycle;Max_cycle;Signal;HPM_P1;HPM_P2
2022/10/28 00:02:25;;;;;;;;;;;;;;;3.57;83.83;100431.44;5105907;28;20269;-63
2022/10/28 00:04:51;;;;;;;;;;;;;;;3.57;83.85;100431.44;5107231;28;20318;-62
2022/10/28 00:07:16;;;;;;;;;;;;;;;3.40;83.76;100413.00;5105650;28;19981;-62
2022/10/28 00:09:42;;;;;;;;;;;;;;;3.54;83.91;100432.72;5105694;28;19963;-62
2022/10/28 00:12:08;;;;;;;;;;;;;;;3.60;83.85;100431.06;5086346;28;20117;-62
2022/10/28 00:14:34;;;;;;;;;;;;;;;3.61;83.63;100430.81;5088990;28;20266;-62
2022/10/28 00:17:01;;;;;;;;;;;;;;;3.61;83.55;100430.81;5090451;28;19928;-62
2022/10/28 00:19:26;;;;;;;;;;;;;;;3.65;83.46;100431.22;5086835;28;20395;-63
2022/10/28 00:21:52;;;;;;;;;;;;;;;3.66;83.28;100436.41;5099115;28;19981;-63
2022/10/28 00:24:18;;;;;;;;;;;;;;;3.66;83.20;100424.78;5102745;28;20030;-61
2022/10/28 00:26:44;;;;;;;;;;;;;;;3.62;83.24;100420.84;5088647;28;19928;-60
2022/10/28 00:29:11;;;;;;;;;;;;;;;3.60;83.20;100417.53;5088027;28;19931;-65
2022/10/28 00:31:37;;;;;;;;;;;;;;;3.61;83.15;100422.72;5070344;28;20265;-66
2022/10/28 00:34:05;;;;;;;;;;;;;;;3.65;83.15;100420.41;5071296;28;19981;-66
2022/10/28 00:36:32;;;;;;;;;;;;;;;3.65;83.16;100428.53;5091327;28;19964;-66
2022/10/28 00:38:58;;;;;;;;;;;;;;;3.65;83.01;100423.13;5087336;28;19928;-65
2022/10/28 00:41:25;;;;;;;;;;;;;;;3.61;83.11;100424.59;5087386;28;19939;-66
2022/10/28 00:43:52;;;;;;;;;;;;;;;3.58;83.30;100427.69;5086275;28;19928;-65
2022/10/28 00:46:23;;;;;;;;;;;;;;;3.60;83.36;100426.47;5085343;28;19932;-65
2022/10/28 00:48:51;;;;;;;;;;;;;;;3.67;83.09;100418.31;5087118;28;19928;-66
2022/10/28 00:51:20;;;;;;;;;;;;;;;3.70;83.16;100420.59;5083960;28;19928;-65
2022/10/28 00:53:47;;;;;;;;;;;;;;;3.69;83.02;100417.06;5085932;28;19928;-66
2022/10/28 00:56:13;;;;;;;;;;;;;;;3.65;83.05;100413.13;5088533;28;19932;-61
2022/10/28 00:58:39;;;;;;;;;;;;;;;3.68;83.00;100417.28;5084577;28;19928;-62
2022/10/28 01:01:04;;;;;;;;;;;;;;;3.68;83.10;100422.69;5087317;28;19935;-61
2022/10/28 01:03:30;;;;;;;;;;;;;;;3.70;83.02;100423.31;5050101;28;19963;-61
2022/10/28 01:05:56;;;;;;;;;;;;;;;3.65;83.13;100425.81;5087066;28;20027;-62
2022/10/28 01:08:23;;;;;;;;;;;;;;;3.63;83.04;100419.81;5088537;28;19978;-61
2022/10/28 01:10:56;;;;;;;;;;;;;;;3.61;83.33;100421.91;5085470;28;19967;-63
2022/10/28 01:13:27;;;;;;;;;;;;;;;3.61;83.24;100417.28;5085596;28;20019;-69
2022/10/28 01:15:56;;;;;;;;;;;;;;;3.60;83.31;100412.13;5086949;28;20281;-65
2022/10/28 01:18:26;;;;;;;;;;;;;;;3.55;83.25;100413.56;5088192;28;19932;-60
2022/10/28 01:21:05;;;;;;;;;;;;;;;3.52;83.30;100415.88;5084796;28;20043;-62
2022/10/28 01:23:34;;;;;;;;;;;;;;;3.54;83.46;100417.31;5086889;28;19935;-62
2022/10/28 01:26:16;;;;;;;;;;;;;;;3.58;83.41;100422.28;5087109;28;20038;-61
2022/10/28 01:29:00;;;;;;;;;;;;;;;3.57;83.29;100417.94;5089270;28;19939;-61
2022/10/28 01:31:33;;;;;;;;;;;;;;;3.63;83.18;100436.03;5084971;28;20304;-61
2022/10/28 01:34:06;;;;;;;;;;;;;;;3.66;82.88;100425.59;5088123;28;19934;-60
2022/10/28 01:36:35;;;;;;;;;;;;;;;3.65;82.96;100420.41;5087351;28;19975;-60
2022/10/28 01:39:03;;;;;;;;;;;;;;;3.68;83.06;100425.38;5094176;28;20303;-64
2022/10/28 01:41:33;;;;;;;;;;;;;;;3.69;82.85;100425.19;5091703;28;20322;-64
2022/10/28 01:44:01;;;;;;;;;;;;;;;3.67;82.90;100413.75;5088311;28;19975;-65
2022/10/28 01:46:29;;;;;;;;;;;;;;;3.74;82.95;100418.31;5072964;28;19931;-65
2022/10/28 01:48:58;;;;;;;;;;;;;;;3.76;82.73;100419.75;5087569;28;20399;-65
2022/10/28 01:51:26;;;;;;;;;;;;;;;3.72;82.67;100404.16;5105489;28;19978;-65
2022/10/28 01:53:54;;;;;;;;;;;;;;;3.75;82.64;100412.69;5105476;28;20365;-61
2022/10/28 01:56:23;;;;;;;;;;;;;;;3.73;82.60;100405.81;5106909;28;20417;-61
2022/10/28 01:58:49;;;;;;;;;;;;;;;3.72;82.72;100402.28;5086742;28;19928;-60
2022/10/28 02:01:15;;;;;;;;;;;;;;;3.67;82.63;100411.06;5104541;28;19977;-62
2022/10/28 02:03:41;;;;;;;;;;;;;;;3.65;82.77;100406.88;5103597;28;20497;-60
2022/10/28 02:06:14;;;;;;;;;;;;;;;3.68;82.96;100411.88;5103627;28;20031;-62
2022/10/28 02:08:51;;;;;;;;;;;;;;;3.73;82.75;100409.34;5086511;28;20448;-61
2022/10/28 02:11:27;;;;;;;;;;;;;;;3.75;82.66;100419.97;5096006;28;20365;-62
2022/10/28 02:13:57;;;;;;;;;;;;;;;3.79;82.50;100405.78;5095295;28;20003;-61
2022/10/28 02:16:27;;;;;;;;;;;;;;;3.79;82.44;100413.06;5108866;28;19950;-60
2022/10/28 02:18:58;;;;;;;;;;;;;;;3.78;82.34;100412.25;5104510;28;19927;-62
2022/10/28 02:21:32;;;;;;;;;;;;;;;3.77;82.36;100424.13;5102642;28;20374;-62
2022/10/28 02:24:01;;;;;;;;;;;;;;;3.73;82.33;100422.06;5083377;28;19935;-62
2022/10/28 02:26:33;;;;;;;;;;;;;;;3.74;82.31;100424.53;5082671;28;19936;-61
2022/10/28 02:29:00;;;;;;;;;;;;;;;3.73;82.01;100420.16;5082712;28;19935;-62
2022/10/28 02:31:28;;;;;;;;;;;;;;;3.75;82.30;100419.97;5081334;28;19950;-62
2022/10/28 02:33:57;;;;;;;;;;;;;;;3.73;82.18;100420.16;5078999;28;19957;-63
2022/10/28 02:36:24;;;;;;;;;;;;;;;3.71;82.34;100411.44;5082988;28;19977;-61
2022/10/28 02:38:53;;;;;;;;;;;;;;;3.74;82.41;100404.78;5084393;28;19928;-62
2022/10/28 02:41:21;;;;;;;;;;;;;;;3.76;82.22;100408.94;5084878;28;19978;-62
2022/10/28 02:43:49;;;;;;;;;;;;;;;3.76;82.21;100411.63;5093507;28;19934;-61
2022/10/28 02:46:16;;;;;;;;;;;;;;;3.80;82.24;100410.16;5102268;28;19927;-60
2022/10/28 02:48:44;;;;;;;;;;;;;;;3.83;82.15;100409.72;5101257;28;20061;-61
2022/10/28 02:51:11;;;;;;;;;;;;;;;3.81;81.88;100403.69;5103217;28;20379;-61
2022/10/28 02:53:42;;;;;;;;;;;;;;;3.73;82.14;100401.22;5098566;28;20365;-59
2022/10/28 02:56:11;;;;;;;;;;;;;;;3.66;82.54;100405.84;5086597;28;19928;-66
2022/10/28 02:58:37;;;;;;;;;;;;;;;3.65;82.68;100406.88;5091863;28;20471;-61
2022/10/28 03:01:03;;;;;;;;;;;;;;;3.66;82.93;100413.97;5104540;28;19927;-61
2022/10/28 03:03:29;;;;;;;;;;;;;;;3.63;82.81;100417.91;5085358;28;19934;-61
2022/10/28 03:05:54;;;;;;;;;;;;;;;3.59;83.10;100413.97;5090610;28;19935;-61
2022/10/28 03:08:20;;;;;;;;;;;;;;;3.62;83.08;100416.25;5084808;28;19928;-61
2022/10/28 03:10:46;;;;;;;;;;;;;;;3.63;83.14;100417.91;5083955;28;20030;-62
2022/10/28 03:13:13;;;;;;;;;;;;;;;3.65;82.93;100418.53;5071871;28;19967;-61
2022/10/28 03:15:38;;;;;;;;;;;;;;;3.66;83.03;100413.97;5085606;28;19932;-60
2022/10/28 03:18:04;;;;;;;;;;;;;;;3.65;83.22;100412.31;5076095;28;19942;-60
2022/10/28 03:20:30;;;;;;;;;;;;;;;3.70;83.09;100423.31;5085297;28;19928;-61
2022/10/28 03:22:56;;;;;;;;;;;;;;;3.75;82.89;100409.13;5085406;28;19928;-62
2022/10/28 03:25:22;;;;;;;;;;;;;;;3.73;82.99;100414.75;5084712;28;19939;-61
2022/10/28 03:27:47;;;;;;;;;;;;;;;3.65;83.16;100415.81;5081701;28;20011;-64
2022/10/28 03:30:17;;;;;;;;;;;;;;;3.66;83.32;100417.47;5086745;28;19936;-63
2022/10/28 03:32:43;;;;;;;;;;;;;;;3.67;83.46;100412.91;5083951;28;19952;-61
2022/10/28 03:35:08;;;;;;;;;;;;;;;3.65;83.52;100418.53;5084553;28;19928;-62
2022/10/28 03:37:34;;;;;;;;;;;;;;;3.67;83.55;100410.22;5088293;28;19928;-60
2022/10/28 03:40:01;;;;;;;;;;;;;;;3.77;83.38;100412.44;5087081;28;19928;-62
2022/10/28 03:42:29;;;;;;;;;;;;;;;3.84;83.40;100413.28;5091670;28;19935;-62
2022/10/28 03:44:54;;;;;;;;;;;;;;;3.87;83.09;100412.00;5110801;28;19928;-62
2022/10/28 03:47:21;;;;;;;;;;;;;;;3.89;83.01;100404.47;5108739;28;19935;-61
2022/10/28 03:49:47;;;;;;;;;;;;;;;3.86;82.98;100394.94;5079270;28;19934;-61
2022/10/28 03:52:13;;;;;;;;;;;;;;;3.79;83.12;100389.56;5087307;28;20373;-61
2022/10/28 03:54:38;;;;;;;;;;;;;;;3.69;83.57;100389.19;5087495;28;19988;-62
2022/10/28 03:57:04;;;;;;;;;;;;;;;3.64;83.95;100400.63;5098593;28;19928;-61
2022/10/28 03:59:30;;;;;;;;;;;;;;;3.63;84.21;100395.47;5104816;28;20452;-62
2022/10/28 04:01:55;;;;;;;;;;;;;;;3.63;84.30;100393.56;5107826;28;20411;-62
2022/10/28 04:04:22;;;;;;;;;;;;;;;3.64;84.33;100403.34;5108031;28;19927;-61
2022/10/28 04:06:48;;;;;;;;;;;;;;;3.68;84.12;100396.47;5107525;28;19938;-62
2022/10/28 04:09:14;;;;;;;;;;;;;;;3.68;84.14;100393.78;5108740;28;19928;-61
2022/10/28 04:11:39;;;;;;;;;;;;;;;3.67;84.19;100386.72;5103508;28;19989;-62
2022/10/28 04:14:05;;;;;;;;;;;;;;;3.72;84.29;100388.75;5107381;28;20372;-61
2022/10/28 04:16:30;;;;;;;;;;;;;;;3.73;84.19;100392.28;5109051;28;19932;-63
2022/10/28 04:18:56;;;;;;;;;;;;;;;3.75;84.20;100396.47;5108649;28;20057;-62
2022/10/28 04:21:23;;;;;;;;;;;;;;;3.72;84.14;100390.63;5107473;28;20452;-64
2022/10/28 04:23:49;;;;;;;;;;;;;;;3.68;84.44;100385.66;5087577;28;19928;-60
2022/10/28 04:26:15;;;;;;;;;;;;;;;3.68;84.45;100385.66;5087785;28;20871;-61
2022/10/28 04:28:40;;;;;;;;;;;;;;;3.71;84.43;100391.69;5086152;28;20108;-61
2022/10/28 04:31:06;;;;;;;;;;;;;;;3.71;84.42;100387.09;5094201;28;19928;-61
2022/10/28 04:33:32;;;;;;;;;;;;;;;3.77;84.59;100394.38;5101070;28;20395;-62
2022/10/28 04:35:57;;;;;;;;;;;;;;;3.78;84.37;100392.47;5092892;28;20038;-61
2022/10/28 04:38:25;;;;;;;;;;;;;;;3.82;84.29;100385.56;5085527;28;19975;-60
2022/10/28 04:40:50;;;;;;;;;;;;;;;3.84;84.22;100383.50;5089252;28;19990;-62
2022/10/28 04:43:16;;;;;;;;;;;;;;;3.83;84.26;100388.09;5077610;28;20027;-61
2022/10/28 04:45:42;;;;;;;;;;;;;;;3.88;84.30;100394.72;5108378;28;19932;-59
2022/10/28 04:48:08;;;;;;;;;;;;;;;3.92;84.06;100385.13;5090571;28;19928;-62
2022/10/28 04:50:34;;;;;;;;;;;;;;;3.97;84.02;100385.31;5110095;28;19986;-61
2022/10/28 04:53:09;;;;;;;;;;;;;;;3.96;83.85;100389.06;5108519;28;20302;-65
2022/10/28 04:55:36;;;;;;;;;;;;;;;3.97;83.92;100393.44;5109213;28;19927;-65
2022/10/28 04:58:02;;;;;;;;;;;;;;;3.97;83.78;100380.72;5102025;28;20429;-65
2022/10/28 05:00:28;;;;;;;;;;;;;;;4.02;83.72;100390.06;5105205;28;19928;-65
2022/10/28 05:02:55;;;;;;;;;;;;;;;4.04;83.58;100387.97;4745179;27;9999902;-65
2022/10/28 05:05:20;;;;;;;;;;;;;;;4.07;83.53;100382.97;5085609;28;20536;-65
2022/10/28 05:07:46;;;;;;;;;;;;;;;4.10;83.50;100390.66;5099757;28;19976;-65
2022/10/28 05:10:14;;;;;;;;;;;;;;;4.12;83.53;100406.66;5077226;28;20026;-65
2022/10/28 05:12:42;;;;;;;;;;;;;;;4.14;83.28;100392.91;5082148;28;19928;-65
2022/10/28 05:15:08;;;;;;;;;;;;;;;4.14;83.31;100391.06;5089980;28;20363;-65
2022/10/28 05:17:34;;;;;;;;;;;;;;;4.11;83.13;100395.00;5108538;28;20330;-66
2022/10/28 05:20:00;;;;;;;;;;;;;;;4.09;83.32;100393.56;5101365;28;19928;-65
2022/10/28 05:22:26;;;;;;;;;;;;;;;4.07;83.54;100393.78;5090886;28;19973;-65
2022/10/28 05:24:52;;;;;;;;;;;;;;;4.09;83.61;100390.84;5090850;28;19971;-64
2022/10/28 05:27:17;;;;;;;;;;;;;;;4.11;83.64;100381.47;5105240;28;19934;-66
2022/10/28 05:29:44;;;;;;;;;;;;;;;4.16;83.43;100374.56;5106766;28;19940;-66
2022/10/28 05:32:10;;;;;;;;;;;;;;;4.19;83.30;100387.66;5110215;28;19958;-62
2022/10/28 05:34:36;;;;;;;;;;;;;;;4.21;83.30;100386.41;5102033;27;19990;-62
2022/10/28 05:37:02;;;;;;;;;;;;;;;4.26;83.40;100389.28;5073520;28;19928;-61
2022/10/28 05:39:28;;;;;;;;;;;;;;;4.29;83.13;100382.63;5087856;28;19928;-62
2022/10/28 05:41:54;;;;;;;;;;;;;;;4.30;83.22;100383.47;5093941;28;19938;-65
2022/10/28 05:44:19;;;;;;;;;;;;;;;4.31;83.05;100385.13;5065290;28;19932;-61
2022/10/28 05:46:47;;;;;;;;;;;;;;;4.17;83.29;100370.81;5083426;28;19935;-65
2022/10/28 05:49:13;;;;;;;;;;;;;;;4.28;83.30;100397.19;5102012;28;19932;-66
2022/10/28 05:51:38;;;;;;;;;;;;;;;4.31;83.27;100404.06;5101827;28;19928;-65
2022/10/28 05:54:04;;;;;;;;;;;;;;;4.29;83.47;100398.00;5094549;28;20284;-62
2022/10/28 05:56:30;;;;;;;;;;;;;;;4.25;83.59;100401.16;5106477;28;19944;-62
2022/10/28 05:58:56;;;;;;;;;;;;;;;4.25;83.73;100408.47;5109758;28;19927;-62
2022/10/28 06:01:21;;;;;;;;;;;;;;;4.20;83.99;100390.16;5110653;28;19931;-61
2022/10/28 06:03:49;;;;;;;;;;;;;;;4.20;84.24;100398.28;5101791;28;19928;-61
2022/10/28 06:06:15;;;;;;;;;;;;;;;4.21;84.40;100385.56;5101648;28;19949;-62
2022/10/28 06:08:41;;;;;;;;;;;;;;;4.25;84.35;100398.47;5100241;28;20316;-62
2022/10/28 06:11:07;;;;;;;;;;;;;;;4.33;84.22;100393.84;5106598;28;19928;-62
2022/10/28 06:13:32;;;;;;;;;;;;;;;4.32;84.47;100384.88;5103370;28;19934;-62
2022/10/28 06:15:58;;;;;;;;;;;;;;;4.38;84.40;100388.59;5089050;28;20019;-61
2022/10/28 06:18:24;;;;;;;;;;;;;;;4.39;84.47;100377.56;5094784;28;19927;-63
2022/10/28 06:20:52;;;;;;;;;;;;;;;4.35;84.78;100381.72;5094399;28;19927;-64
2022/10/28 06:23:17;;;;;;;;;;;;;;;4.44;84.61;100386.88;5095154;28;20481;-63
2022/10/28 06:25:43;;;;;;;;;;;;;;;4.57;84.67;100385.94;5091793;28;19928;-64
2022/10/28 06:28:09;;;;;;;;;;;;;;;4.67;84.46;100378.97;5082231;28;20510;-64
2022/10/28 06:30:34;;;;;;;;;;;;;;;4.75;84.24;100380.56;5099745;28;19927;-63
2022/10/28 06:33:00;;;;;;;;;;;;;;;4.79;83.97;100384.53;5107587;28;20421;-64
2022/10/28 06:35:26;;;;;;;;;;;;;;;4.80;84.07;100388.03;5107772;28;19982;-63
2022/10/28 06:37:54;;;;;;;;;;;;;;;4.83;83.94;100376.75;5110029;28;19928;-63
2022/10/28 06:40:20;;;;;;;;;;;;;;;4.87;83.98;100382.56;5108744;28;20018;-64
2022/10/28 06:42:46;;;;;;;;;;;;;;;4.88;83.95;100379.66;5108566;28;19928;-63
2022/10/28 06:45:12;;;;;;;;;;;;;;;4.91;84.02;100376.50;5108901;28;19947;-64
2022/10/28 06:47:38;;;;;;;;;;;;;;;4.95;83.87;100380.41;5109066;28;19934;-64
2022/10/28 06:50:04;;;;;;;;;;;;;;;4.98;83.67;100384.56;5108494;28;19931;-63
2022/10/28 06:52:29;;;;;;;;;;;;;;;4.95;83.93;100385.81;5091269;28;19954;-63
2022/10/28 06:54:56;;;;;;;;;;;;;;;4.93;84.27;100382.50;5110398;28;19928;-63
2022/10/28 06:57:22;;;;;;;;;;;;;;;4.97;84.32;100375.59;5109106;28;19989;-64
2022/10/28 06:59:48;;;;;;;;;;;;;;;5.06;84.30;100370.69;5108835;28;20406;-63
2022/10/28 07:02:14;;;;;;;;;;;;;;;5.15;84.12;100362.28;5108927;28;20402;-64
2022/10/28 07:04:41;;;;;;;;;;;;;;;5.20;84.09;100367.84;5108638;28;19935;-64
2022/10/28 07:07:07;;;;;;;;;;;;;;;5.24;83.98;100367.19;5109771;28;19927;-64
2022/10/28 07:09:32;;;;;;;;;;;;;;;5.23;84.08;100367.44;5109026;28;19934;-64
2022/10/28 07:11:59;;;;;;;;;;;;;;;5.27;84.13;100367.78;5115128;28;20543;-63
2022/10/28 07:14:26;;;;;;;;;;;;;;;5.29;84.08;100366.50;5112944;28;20334;-63
2022/10/28 07:16:52;;;;;;;;;;;;;;;5.36;84.09;100369.16;5113269;28;19971;-63
2022/10/28 07:19:17;;;;;;;;;;;;;;;5.43;83.98;100372.59;5113704;28;19974;-63
2022/10/28 07:21:43;;;;;;;;;;;;;;;5.48;83.78;100363.78;5111481;28;19927;-63
2022/10/28 07:24:09;;;;;;;;;;;;;;;5.47;83.69;100359.44;5114054;27;19961;-63
2022/10/28 07:26:35;;;;;;;;;;;;;;;5.47;83.74;100354.84;5113390;28;19957;-64
2022/10/28 07:29:02;;;;;;;;;;;;;;;5.50;83.75;100361.69;5111575;28;19934;-63
2022/10/28 07:31:28;;;;;;;;;;;;;;;5.55;83.89;100351.00;5114416;28;19928;-63
2022/10/28 07:33:54;;;;;;;;;;;;;;;5.62;83.71;100362.56;5114122;28;20026;-63
2022/10/28 07:36:20;;;;;;;;;;;;;;;5.66;83.67;100360.25;5112497;28;20409;-63
2022/10/28 07:38:47;;;;;;;;;;;;;;;5.66;83.70;100352.09;5112475;28;19931;-63
2022/10/28 07:41:13;;;;;;;;;;;;;;;5.60;83.83;100369.28;5113053;28;19928;-63
2022/10/28 07:43:39;;;;;;;;;;;;;;;5.57;84.25;100365.16;5111807;28;19935;-63
2022/10/28 07:46:06;;;;;;;;;;;;;;;5.63;84.37;100352.56;5114050;28;19980;-63
2022/10/28 07:48:32;;;;;;;;;;;;;;;5.65;84.46;100362.13;5114152;28;19927;-64
2022/10/28 07:50:59;;;;;;;;;;;;;;;5.67;84.38;100360.00;5095392;28;19935;-64
2022/10/28 07:53:24;;;;;;;;;;;;;;;5.70;84.28;100363.31;5113681;28;20455;-64
2022/10/28 07:55:53;;;;;;;;;;;;;;;5.67;84.32;100361.91;5113259;28;19928;-63
2022/10/28 07:58:19;;;;;;;;;;;;;;;5.67;84.46;100362.72;5111314;27;19928;-64
2022/10/28 08:00:44;;;;;;;;;;;;;;;5.73;84.48;100365.59;5112157;28;20055;-64
2022/10/28 08:03:11;;;;;;;;;;;;;;;5.82;84.19;100359.59;5112389;28;19927;-63
2022/10/28 08:05:37;;;;;;;;;;;;;;;5.90;83.88;100363.03;5111686;28;19928;-63
2022/10/28 08:08:03;;;;;;;;;;;;;;;5.95;83.67;100360.50;5112504;28;19927;-63
2022/10/28 08:10:28;;;;;;;;;;;;;;;5.97;83.52;100363.78;5094666;28;19928;-64
2022/10/28 08:12:55;;;;;;;;;;;;;;;6.03;83.40;100356.66;5110622;28;20029;-64
2022/10/28 08:15:22;;;;;;;;;;;;;;;6.15;83.12;100353.97;5112082;28;19938;-63
2022/10/28 08:17:49;;;;;;;;;;;;;;;6.22;82.89;100355.53;5112012;28;19927;-64
2022/10/28 08:20:17;;;;;;;;;;;;;;;6.30;82.54;100353.53;5112463;28;20451;-64
2022/10/28 08:22:42;;;;;;;;;;;;;;;6.34;82.37;100344.69;5112149;28;20434;-63
2022/10/28 08:25:08;;;;;;;;;;;;;;;6.43;82.09;100360.66;5111271;28;20034;-63
2022/10/28 08:27:34;;;;;;;;;;;;;;;6.51;81.99;100355.72;5111383;27;20336;-64
2022/10/28 08:30:00;;;;;;;;;;;;;;;6.59;81.52;100356.41;5110710;28;20386;-64
2022/10/28 08:32:25;;;;;;;;;;;;;;;6.64;81.37;100357.38;5112775;28;19935;-64
2022/10/28 08:34:53;;;;;;;;;;;;;;;6.74;80.98;100356.78;5112482;28;20286;-64
2022/10/28 08:37:19;;;;;;;;;;;;;;;6.81;80.64;100362.09;5113040;28;20299;-64
2022/10/28 08:39:45;;;;;;;;;;;;;;;6.83;80.34;100354.53;5110671;28;20034;-63
2022/10/28 08:42:25;;;;;;;;;;;;;;;6.82;80.30;100361.03;5110816;28;20030;-63
2022/10/28 08:45:06;;;;;;;;;;;;;;;6.85;80.30;100355.13;5111054;28;19939;-63
2022/10/28 08:47:41;;;;;;;;;;;;;;;6.94;80.17;100352.88;5112664;28;19927;-64
2022/10/28 08:50:11;;;;;;;;;;;;;;;7.05;79.82;100346.59;5076953;28;20399;-64
2022/10/28 08:52:43;;;;;;;;;;;;;;;7.18;79.45;100347.44;5112453;28;20078;-64
2022/10/28 08:55:12;;;;;;;;;;;;;;;7.32;78.81;100347.97;5112970;28;19927;-64
2022/10/28 08:57:39;;;;;;;;;;;;;;;7.41;78.52;100341.13;5111380;28;19935;-64
2022/10/28 09:00:06;;;;;;;;;;;;;;;7.43;78.09;100338.16;5111221;28;19970;-64
2022/10/28 09:02:37;;;;;;;;;;;;;;;7.46;77.93;100333.03;5077812;28;19927;-64
2022/10/28 09:05:05;;;;;;;;;;;;;;;7.45;77.86;100338.75;5112195;28;19935;-64
2022/10/28 09:07:32;;;;;;;;;;;;;;;7.39;78.10;100340.53;5111133;28;19928;-64
2022/10/28 09:09:59;;;;;;;;;;;;;;;7.68;78.04;100328.84;5111337;28;19950;-64
2022/10/28 09:12:31;;;;;;;;;;;;;;;9.06;74.60;100325.97;5111087;28;19929;-64
2022/10/28 09:15:03;;;;;;;;;;;;;;;10.07;69.73;100320.31;5111782;28;19928;-64
2022/10/28 09:17:33;;;;;;;;;;;;;;;10.44;67.84;100315.97;5110649;28;19928;-66
2022/10/28 09:20:01;;;;;;;;;;;;;;;10.14;67.71;100309.97;5111255;28;20403;-64
2022/10/28 09:22:33;;;;;;;;;;;;;;;10.04;67.88;100304.41;5110929;28;19988;-64
2022/10/28 09:25:01;;;;;;;;;;;;;;;9.78;68.40;100304.97;5110239;28;19928;-64
2022/10/28 09:27:35;;;;;;;;;;;;;;;9.50;69.27;100308.78;5111846;28;19950;-64
2022/10/28 09:30:05;;;;;;;;;;;;;;;9.58;69.63;100307.50;5111082;28;19951;-64
2022/10/28 09:32:35;;;;;;;;;;;;;;;9.88;68.71;100300.72;5111328;28;19927;-64
2022/10/28 09:35:05;;;;;;;;;;;;;;;9.82;68.68;100305.31;5076393;28;19973;-64
2022/10/28 09:37:34;;;;;;;;;;;;;;;9.74;68.42;100303.84;5110453;28;19931;-64
2022/10/28 09:40:06;;;;;;;;;;;;;;;9.42;69.29;100303.75;5107520;28;20122;-64
2022/10/28 09:42:37;;;;;;;;;;;;;;;9.58;69.67;100304.78;5111662;27;20109;-64
2022/10/28 09:45:03;;;;;;;;;;;;;;;10.21;68.89;100290.63;5111228;27;20409;-64
2022/10/28 09:47:31;;;;;;;;;;;;;;;11.30;64.80;100283.94;5111626;28;19927;-64
2022/10/28 09:50:00;;;;;;;;;;;;;;;11.97;62.08;100277.00;5109374;28;19927;-64
2022/10/28 09:52:29;;;;;;;;;;;;;;;12.23;60.80;100274.28;5109587;28;19963;-64
2022/10/28 09:54:56;;;;;;;;;;;;;;;12.36;60.52;100275.66;5108805;28;19928;-64
2022/10/28 09:57:28;;;;;;;;;;;;;;;12.06;60.56;100264.41;5111424;28;19935;-64
2022/10/28 09:59:53;;;;;;;;;;;;;;;11.80;61.60;100264.38;5092764;28;19927;-64
2022/10/28 10:02:25;;;;;;;;;;;;;;;11.63;61.96;100270.06;5109967;28;19935;-64
2022/10/28 10:04:51;;;;;;;;;;;;;;;11.56;62.62;100270.34;5111052;28;19927;-65
2022/10/28 10:07:21;;;;;;;;;;;;;;;11.45;61.77;100227.56;5110882;28;19928;-63
2022/10/28 10:09:47;;;;;;;;;;;;;;;11.79;61.53;100259.97;5092235;28;20425;-63
2022/10/28 10:12:13;;;;;;;;;;;;;;;11.87;61.29;100264.91;5092240;28;19951;-65
2022/10/28 10:14:42;;;;;;;;;;;;;;;11.89;61.02;100262.72;5108936;28;19946;-64
2022/10/28 10:17:11;;;;;;;;;;;;;;;11.81;61.31;100257.78;5110401;28;19988;-64
2022/10/28 10:20:03;;;;;;;;;;;;;;;11.52;62.32;100261.03;5108270;28;20049;-64
2022/10/28 10:22:30;;;;;;;;;;;;;;;11.24;63.20;100259.53;5071836;28;20437;-64
2022/10/28 10:24:56;;;;;;;;;;;;;;;10.94;64.07;100250.13;5110617;28;19927;-63
2022/10/28 10:27:24;;;;;;;;;;;;;;;10.64;65.14;100257.88;5109454;28;19927;-63
2022/10/28 10:29:52;;;;;;;;;;;;;;;10.38;65.95;100252.25;5110112;28;20383;-63
2022/10/28 10:32:18;;;;;;;;;;;;;;;10.25;66.69;100260.88;5108921;28;19988;-64
2022/10/28 10:34:48;;;;;;;;;;;;;;;10.04;67.41;100261.53;5075285;28;20375;-63
2022/10/28 10:37:18;;;;;;;;;;;;;;;9.82;68.05;100258.88;5109117;28;20040;-64
2022/10/28 10:39:44;;;;;;;;;;;;;;;9.68;68.90;100258.47;5108910;28;19975;-63
2022/10/28 10:42:21;;;;;;;;;;;;;;;9.60;69.56;100251.56;5109458;28;20318;-63
2022/10/28 10:44:55;;;;;;;;;;;;;;;9.59;69.60;100252.63;5109491;28;19971;-63
2022/10/28 10:47:22;;;;;;;;;;;;;;;9.56;69.88;100247.69;5108821;28;20411;-63
2022/10/28 10:49:50;;;;;;;;;;;;;;;9.50;69.93;100240.53;5074409;28;19935;-63
2022/10/28 10:52:18;;;;;;;;;;;;;;;9.39;70.62;100234.16;5108739;28;19928;-64
2022/10/28 10:54:47;;;;;;;;;;;;;;;9.27;70.96;100236.19;5110184;28;19984;-63
2022/10/28 10:57:15;;;;;;;;;;;;;;;9.08;71.38;100247.44;5110296;28;20345;-63
2022/10/28 10:59:44;;;;;;;;;;;;;;;8.97;71.93;100241.00;5109871;28;19988;-63
2022/10/28 11:02:19;;;;;;;;;;;;;;;8.85;72.45;100241.13;5109475;28;20378;-63
2022/10/28 11:04:50;;;;;;;;;;;;;;;8.73;72.69;100234.97;5110028;28;19932;-64
2022/10/28 11:07:16;;;;;;;;;;;;;;;8.57;73.58;100239.38;5090537;28;20169;-64
2022/10/28 11:09:46;;;;;;;;;;;;;;;8.38;74.45;100247.81;5091732;28;19928;-64
2022/10/28 11:12:15;;;;;;;;;;;;;;;8.30;74.92;100251.78;5109299;28;20315;-64
2022/10/28 11:14:53;;;;;;;;;;;;;;;8.28;75.27;100243.03;5110235;28;20050;-64
2022/10/28 11:17:22;;;;;;;;;;;;;;;8.23;75.49;100243.78;5091431;28;19927;-63
2022/10/28 11:19:51;;;;;;;;;;;;;;;8.14;76.03;100241.72;5109454;28;19963;-64
2022/10/28 11:22:24;;;;;;;;;;;;;;;8.13;76.20;100235.44;5107367;28;19928;-63
2022/10/28 11:24:58;;;;;;;;;;;;;;;8.13;76.27;100240.88;5110323;28;19935;-64
2022/10/28 11:27:30;;;;;;;;;;;;;;;8.16;76.21;100229.47;5109569;28;20372;-64
2022/10/28 11:29:58;;;;;;;;;;;;;;;8.18;76.31;100226.53;5109514;28;19927;-64
2022/10/28 11:32:29;;;;;;;;;;;;;;;8.17;76.46;100230.31;5104983;28;19980;-64
2022/10/28 11:35:16;;;;;;;;;;;;;;;8.19;76.56;100220.81;5103128;28;19934;-63
2022/10/28 11:37:50;;;;;;;;;;;;;;;8.23;76.63;100216.53;5102264;28;19927;-63
2022/10/28 11:40:24;;;;;;;;;;;;;;;8.25;76.59;100212.72;5108658;28;19966;-63
2022/10/28 11:42:58;;;;;;;;;;;;;;;8.28;76.54;100212.22;5109724;28;19927;-67
2022/10/28 11:45:28;;;;;;;;;;;;;;;8.27;76.49;100205.94;5107138;28;20029;-63
2022/10/28 11:48:04;;;;;;;;;;;;;;;8.32;76.26;100206.03;5104827;28;19928;-63
2022/10/28 11:50:48;;;;;;;;;;;;;;;8.38;76.24;100215.91;5106207;28;19934;-65
2022/10/28 11:53:32;;;;;;;;;;;;;;;8.43;76.02;100215.19;5109752;28;19951;-63
2022/10/28 11:56:02;;;;;;;;;;;;;;;8.43;75.94;100212.44;5109226;28;20406;-64
2022/10/28 11:58:34;;;;;;;;;;;;;;;8.40;75.98;100202.06;5110047;28;19943;-64
2022/10/28 12:01:06;;;;;;;;;;;;;;;8.35;76.23;100210.97;5110468;28;19934;-64
2022/10/28 12:03:47;;;;;;;;;;;;;;;8.35;76.53;100197.34;5092421;28;20382;-64
2022/10/28 12:06:16;;;;;;;;;;;;;;;8.37;76.60;100206.09;5106222;28;19928;-64
2022/10/28 12:08:59;;;;;;;;;;;;;;;8.43;76.52;100203.44;5109337;28;20426;-64
2022/10/28 12:11:32;;;;;;;;;;;;;;;8.47;76.55;100199.97;5111087;28;19931;-63
2022/10/28 12:14:02;;;;;;;;;;;;;;;8.47;76.34;100190.97;5094952;28;19934;-64
2022/10/28 12:16:31;;;;;;;;;;;;;;;8.42;76.62;100199.06;5109124;28;19928;-64
2022/10/28 12:18:59;;;;;;;;;;;;;;;8.38;76.94;100198.75;5098996;28;20327;-64
2022/10/28 12:21:28;;;;;;;;;;;;;;;8.38;76.98;100201.50;5108437;28;19927;-64
2022/10/28 12:23:57;;;;;;;;;;;;;;;8.33;77.23;100194.06;5108437;28;20379;-64
2022/10/28 12:26:32;;;;;;;;;;;;;;;8.33;77.26;100188.63;5108909;27;19957;-64
2022/10/28 12:29:01;;;;;;;;;;;;;;;8.33;77.37;100182.31;5108555;28;19927;-64
2022/10/28 12:31:29;;;;;;;;;;;;;;;8.33;77.35;100177.72;5107195;28;20283;-63
2022/10/28 12:33:55;;;;;;;;;;;;;;;8.33;77.30;100190.50;5105887;28;19934;-64
2022/10/28 12:36:27;;;;;;;;;;;;;;;8.32;77.49;100184.25;5105433;28;19951;-64
2022/10/28 12:38:56;;;;;;;;;;;;;;;8.31;77.56;100182.59;5108380;28;19928;-64
2022/10/28 12:41:23;;;;;;;;;;;;;;;8.33;77.74;100185.03;5107365;28;20378;-64
2022/10/28 12:43:50;;;;;;;;;;;;;;;8.33;77.68;100185.03;5104253;28;19932;-64
2022/10/28 12:46:25;;;;;;;;;;;;;;;8.35;77.60;100185.63;5107213;28;19928;-64
2022/10/28 12:48:54;;;;;;;;;;;;;;;8.33;77.57;100183.16;5105365;28;20026;-64
2022/10/28 12:51:26;;;;;;;;;;;;;;;8.33;77.75;100185.03;5107166;28;20066;-64